»·PEaware :: N478GF KBFL-KMHV

N478GF :: KBFL-KMHV

FLIGHT INFORMATION

Flight Status: Arrived
Operator: Privately registered:
United States
More flights under this callsign
Pilot: Aaron H. (20539)
Aircraft: CESSNA 172 SKYHAWK
(C172)
More flights by this aircraft type
Origin: KBFL Meadows
United States
Destination: KMHV Mojave
United States
More flights between these airports :: More routes between these airports
Route:
File this flight plan on PilotEdge
Remarks:
Altitude:
(Current/Filed)
8,500ft
Speed:
(Current/Filed)
120kts
Departed: 25-Sep-18 08:41 PM
Arrived: 25-Sep-18 09:15 PM
Distance/Time
Traveled:
52nm/0:34
Distance/Time
To Go:
Arrived

Flight Plot

Page will automatically refresh every two minutes.


Map Options




Map Legend


Flown Route
Filed Route
Departure Airport
Arrival Airport
Navaid (VOR, NDB)
Fix

Horizontal Profiles

Position Reports

Time Latitude Longitude Heading Altitude Ground
Speed
25-Sep-18 20:16 35.425869 -119.042798 4 483ft 0kts
25-Sep-18 20:17 35.425869 -119.042798 4 483ft 0kts
25-Sep-18 20:18 35.425869 -119.042798 4 483ft 0kts
25-Sep-18 20:19 35.425869 -119.042798 4 483ft 0kts
25-Sep-18 20:20 35.425869 -119.042798 4 483ft 0kts
25-Sep-18 20:21 35.425869 -119.042798 4 483ft 0kts
25-Sep-18 20:22 35.425869 -119.042798 4 483ft 0kts
25-Sep-18 20:23 35.425869 -119.042798 4 483ft 0kts
25-Sep-18 20:24 35.425869 -119.042798 4 483ft 0kts
25-Sep-18 20:25 35.425869 -119.042798 4 483ft 0kts
25-Sep-18 20:26 35.425869 -119.042798 4 483ft 0kts
25-Sep-18 20:27 35.425869 -119.042798 4 483ft 0kts
25-Sep-18 20:28 35.425869 -119.042798 4 483ft 0kts
25-Sep-18 20:29 35.425869 -119.042798 4 483ft 0kts
25-Sep-18 20:30 35.425869 -119.042798 4 483ft 0kts
25-Sep-18 20:31 35.425869 -119.042798 4 483ft 0kts
25-Sep-18 20:32 35.425869 -119.042798 4 483ft 0kts
25-Sep-18 20:33 35.425869 -119.042798 4 483ft 0kts
25-Sep-18 20:34 35.425869 -119.042798 4 483ft 0kts
25-Sep-18 20:35 35.425869 -119.042798 4 483ft 0kts
25-Sep-18 20:36 35.425957 -119.043141 255 483ft 5kts
25-Sep-18 20:37 35.425686 -119.043678 225 482ft 7kts
25-Sep-18 20:38 35.425579 -119.044775 259 479ft 0kts
25-Sep-18 20:39 35.425579 -119.044775 259 479ft 0kts
25-Sep-18 20:40 35.425579 -119.044775 259 479ft 0kts
25-Sep-18 20:41 35.425579 -119.044775 259 479ft 0kts
25-Sep-18 20:42 35.425519 -119.045392 268 478ft 11kts
25-Sep-18 20:43 35.428447 -119.049650 314 492ft 72kts
25-Sep-18 20:44 35.445618 -119.062805 22 1313ft 84kts
25-Sep-18 20:45 35.447120 -119.039150 110 2363ft 81kts
25-Sep-18 20:46 35.435953 -119.014000 121 3251ft 89kts
25-Sep-18 20:47 35.424206 -118.988965 109 4177ft 85kts
25-Sep-18 20:48 35.415115 -118.962203 134 4984ft 91kts
25-Sep-18 20:49 35.396201 -118.942740 124 5754ft 90kts
25-Sep-18 20:50 35.381667 -118.918084 126 6494ft 90kts
25-Sep-18 20:51 35.366984 -118.893001 123 7173ft 91kts
25-Sep-18 20:52 35.352398 -118.864742 118 7494ft 115kts
25-Sep-18 20:53 35.334793 -118.829859 117 7640ft 113kts
25-Sep-18 20:54 35.315388 -118.794307 123 7496ft 126kts
25-Sep-18 20:55 35.294766 -118.759701 124 7494ft 125kts
25-Sep-18 20:56 35.273967 -118.725349 124 7494ft 126kts
25-Sep-18 20:57 35.256795 -118.688471 115 7550ft 123kts
25-Sep-18 20:58 35.240876 -118.651445 115 7650ft 123kts
25-Sep-18 20:59 35.224861 -118.614305 115 7751ft 123kts
25-Sep-18 21:00 35.208820 -118.577156 115 7852ft 124kts
25-Sep-18 21:01 35.192809 -118.540592 120 7748ft 112kts
25-Sep-18 21:02 35.179518 -118.515837 121 6803ft 106kts
25-Sep-18 21:03 35.162661 -118.484087 122 5270ft 119kts
25-Sep-18 21:04 35.144984 -118.450492 125 4701ft 97kts
25-Sep-18 21:05 35.132141 -118.430127 118 5510ft 85kts
25-Sep-18 21:06 35.120629 -118.403014 109 6173ft 103kts
25-Sep-18 21:07 35.107471 -118.365481 109 6932ft 105kts
25-Sep-18 21:08 35.099127 -118.335533 105 6839ft 124kts
25-Sep-18 21:09 35.089510 -118.298231 106 6311ft 113kts
25-Sep-18 21:10 35.079627 -118.255856 104 5436ft 111kts
25-Sep-18 21:11 35.072686 -118.225296 102 4682ft 117kts
25-Sep-18 21:12 35.065788 -118.187112 99 3806ft 115kts
25-Sep-18 21:13 35.050313 -118.159109 140 3465ft 102kts
25-Sep-18 21:14 35.028846 -118.137767 144 3481ft 99kts
25-Sep-18 21:15 35.028627 -118.117524 351 3528ft 77kts
25-Sep-18 21:16 35.043856 -118.129807 311 2793ft 61kts
25-Sep-18 21:17 35.052831 -118.140664 316 2714ft 26kts
25-Sep-18 21:18 35.057439 -118.146384 296 2738ft 8kts
25-Sep-18 21:19 35.057559 -118.147788 262 2741ft 0kts
25-Sep-18 21:20 35.056826 -118.147915 133 2740ft 18kts
25-Sep-18 21:21 35.051689 -118.141686 135 2714ft 22kts
25-Sep-18 21:22 35.048466 -118.137793 135 2700ft 14kts
25-Sep-18 21:23 35.045826 -118.134561 139 2688ft 13kts
25-Sep-18 21:24 35.044302 -118.131768 46 2680ft 0kts
25-Sep-18 21:25 35.045219 -118.131530 327 2681ft 12kts
25-Sep-18 21:26 35.049543 -118.136690 316 2810ft 57kts
25-Sep-18 21:27 35.062820 -118.153909 281 3532ft 77kts
25-Sep-18 21:28 35.043402 -118.164234 176 4339ft 100kts
25-Sep-18 21:29 35.015823 -118.161233 164 5170ft 101kts
25-Sep-18 21:30 34.988003 -118.158326 179 5936ft 102kts
25-Sep-18 21:31 34.959265 -118.157570 178 6652ft 104kts

Navigation Log

Ident Type
Flight plan parsing failed, navigation log unavailable